createdAt,value
2023-10-25T00:00:32.374Z,19.35
2023-10-25T00:02:59.467Z,19.40
2023-10-25T00:05:32.022Z,19.25
2023-10-25T00:07:58.809Z,19.28
2023-10-25T00:10:25.826Z,19.19
2023-10-25T00:12:52.666Z,19.24
2023-10-25T00:15:19.647Z,19.31
2023-10-25T00:17:46.558Z,19.09
2023-10-25T00:20:13.548Z,19.16
2023-10-25T00:22:40.350Z,19.16
2023-10-25T00:25:07.551Z,19.05
2023-10-25T00:27:34.470Z,19.05
2023-10-25T00:30:01.296Z,19.03
2023-10-25T00:32:28.082Z,18.97
2023-10-25T00:34:54.915Z,18.99
2023-10-25T00:37:21.752Z,19.05
2023-10-25T00:39:49.315Z,19.04
2023-10-25T00:42:16.267Z,18.97
2023-10-25T00:44:43.161Z,18.94
2023-10-25T00:47:10.007Z,18.99
2023-10-25T00:49:38.084Z,18.92
2023-10-25T00:52:05.882Z,18.91
2023-10-25T00:54:32.944Z,18.95
2023-10-25T00:57:00.348Z,18.93
2023-10-25T00:59:28.575Z,18.97
2023-10-25T01:01:55.800Z,18.86
2023-10-25T01:04:22.750Z,18.89
2023-10-25T01:06:49.710Z,18.82
2023-10-25T01:09:16.613Z,18.91
2023-10-25T01:11:43.595Z,18.86
2023-10-25T01:14:11.380Z,18.93
2023-10-25T01:16:38.261Z,18.91
2023-10-25T01:19:05.143Z,18.88
2023-10-25T01:21:32.394Z,18.91
2023-10-25T01:23:59.419Z,18.87
2023-10-25T01:26:26.288Z,18.86
2023-10-25T01:28:53.106Z,18.79
2023-10-25T01:31:20.962Z,18.89
2023-10-25T01:33:52.349Z,18.92
2023-10-25T01:36:20.154Z,18.77
2023-10-25T01:38:47.023Z,18.85
2023-10-25T01:41:19.689Z,18.85
2023-10-25T01:43:47.725Z,18.75
2023-10-25T01:46:15.062Z,18.60
2023-10-25T01:48:42.090Z,18.71
2023-10-25T01:51:09.886Z,18.67
2023-10-25T01:53:37.211Z,18.65
2023-10-25T01:56:04.221Z,18.66
2023-10-25T01:58:31.607Z,18.61
2023-10-25T02:00:58.666Z,18.60
2023-10-25T02:03:25.662Z,18.54
2023-10-25T02:05:52.552Z,18.60
2023-10-25T02:08:19.393Z,18.55
2023-10-25T02:10:46.289Z,18.59
2023-10-25T02:13:13.196Z,18.63
2023-10-25T02:15:41.162Z,18.58
2023-10-25T02:18:08.607Z,18.60
2023-10-25T02:20:35.480Z,18.59
2023-10-25T02:23:02.678Z,18.59
2023-10-25T02:25:29.588Z,18.57
2023-10-25T02:27:58.084Z,18.48
2023-10-25T02:30:25.293Z,18.58
2023-10-25T02:32:52.210Z,18.53
2023-10-25T02:35:19.436Z,18.50
2023-10-25T02:37:46.396Z,18.49
2023-10-25T02:40:13.230Z,18.49
2023-10-25T02:42:43.597Z,18.50
2023-10-25T02:45:10.646Z,18.47
2023-10-25T02:47:37.722Z,18.51
2023-10-25T02:50:06.209Z,18.56
2023-10-25T02:52:33.015Z,18.60
2023-10-25T02:54:59.865Z,18.58
2023-10-25T02:57:26.777Z,18.52
2023-10-25T02:59:54.945Z,18.58
2023-10-25T03:02:21.854Z,18.48
2023-10-25T03:04:49.021Z,18.46
2023-10-25T03:07:15.849Z,18.50
2023-10-25T03:09:42.848Z,18.44
2023-10-25T03:12:10.096Z,18.38
2023-10-25T03:14:36.843Z,18.46
2023-10-25T03:17:03.854Z,18.46
2023-10-25T03:19:31.157Z,18.36
2023-10-25T03:21:58.363Z,18.40
2023-10-25T03:24:25.447Z,18.41
2023-10-25T03:26:52.334Z,18.36
2023-10-25T03:29:19.236Z,18.34
2023-10-25T03:31:46.168Z,18.42
2023-10-25T03:34:13.314Z,18.41
2023-10-25T03:36:40.179Z,18.31
2023-10-25T03:39:07.232Z,18.37
2023-10-25T03:41:34.213Z,18.37
2023-10-25T03:44:01.125Z,18.34
2023-10-25T03:46:28.051Z,18.26
2023-10-25T03:48:54.970Z,18.27
2023-10-25T03:51:23.172Z,18.25
2023-10-25T03:53:50.636Z,18.33
2023-10-25T03:56:17.473Z,18.31
2023-10-25T03:58:44.367Z,18.30
2023-10-25T04:01:12.452Z,18.28
2023-10-25T04:03:39.663Z,18.33
2023-10-25T04:06:08.425Z,18.42
2023-10-25T04:08:35.442Z,18.45
2023-10-25T04:11:02.711Z,18.40
2023-10-25T04:13:29.596Z,18.38
2023-10-25T04:16:01.546Z,18.31
2023-10-25T04:18:29.066Z,18.35
2023-10-25T04:20:57.320Z,18.27
2023-10-25T04:23:25.786Z,18.25
2023-10-25T04:25:53.300Z,18.28
2023-10-25T04:28:20.453Z,18.29
2023-10-25T04:30:47.631Z,18.34
2023-10-25T04:33:15.334Z,18.32
2023-10-25T04:35:42.806Z,18.33
2023-10-25T04:38:10.330Z,18.37
2023-10-25T04:40:37.120Z,18.39
2023-10-25T04:43:04.081Z,18.46
2023-10-25T04:45:30.991Z,18.48
2023-10-25T04:47:57.951Z,18.48
2023-10-25T04:50:24.874Z,18.46
2023-10-25T04:52:51.763Z,18.50
2023-10-25T04:55:18.793Z,18.47
2023-10-25T04:57:45.716Z,18.51
2023-10-25T05:00:13.313Z,18.52
2023-10-25T05:02:40.399Z,18.55
2023-10-25T05:05:09.085Z,18.54
2023-10-25T05:07:38.541Z,18.60
2023-10-25T05:10:10.441Z,18.57
2023-10-25T05:12:44.540Z,18.60
2023-10-25T05:15:13.537Z,18.54
2023-10-25T05:17:41.272Z,18.53
2023-10-25T05:20:08.940Z,18.57
2023-10-25T05:22:37.902Z,18.57
2023-10-25T05:25:06.785Z,18.58
2023-10-25T05:27:35.140Z,18.63
2023-10-25T05:30:06.550Z,18.62
2023-10-25T05:32:35.541Z,18.63
2023-10-25T05:35:04.982Z,18.62
2023-10-25T05:37:32.523Z,18.62
2023-10-25T05:39:59.678Z,18.56
2023-10-25T05:42:27.030Z,18.59
2023-10-25T05:44:57.577Z,18.62
2023-10-25T05:47:25.239Z,18.69
2023-10-25T05:49:52.875Z,18.68
2023-10-25T05:52:21.242Z,18.71
2023-10-25T05:54:48.678Z,18.71
2023-10-25T05:57:15.898Z,18.68
2023-10-25T05:59:43.003Z,18.72
2023-10-25T06:02:12.504Z,18.73
2023-10-25T06:04:41.069Z,18.80
2023-10-25T06:07:10.968Z,18.77
2023-10-25T06:09:39.058Z,18.82
2023-10-25T06:12:07.064Z,18.83
2023-10-25T06:14:34.067Z,18.80
2023-10-25T06:17:02.353Z,18.88
2023-10-25T06:19:29.386Z,18.84
2023-10-25T06:21:56.553Z,18.89
2023-10-25T06:24:23.553Z,18.94
2023-10-25T06:26:50.673Z,18.83
2023-10-25T06:29:17.642Z,18.88
2023-10-25T06:31:51.360Z,18.85
2023-10-25T06:34:20.134Z,18.81
2023-10-25T06:36:48.061Z,18.86
2023-10-25T06:39:15.260Z,18.84
2023-10-25T06:41:43.238Z,18.84
2023-10-25T06:44:10.789Z,18.87
2023-10-25T06:46:38.110Z,18.82
2023-10-25T06:49:05.472Z,18.83
2023-10-25T06:51:32.610Z,18.83
2023-10-25T06:53:59.757Z,18.93
2023-10-25T06:56:26.916Z,19.02
2023-10-25T06:58:54.565Z,19.01
2023-10-25T07:01:24.749Z,19.13
2023-10-25T07:03:52.552Z,19.20
2023-10-25T07:06:20.094Z,19.26
2023-10-25T07:08:49.794Z,19.45
2023-10-25T07:11:16.914Z,19.51
2023-10-25T07:13:43.811Z,19.71
2023-10-25T07:16:10.823Z,19.78
2023-10-25T07:18:40.083Z,19.83
2023-10-25T07:21:07.573Z,19.95
2023-10-25T07:23:34.504Z,20.06
2023-10-25T07:26:01.348Z,20.10
2023-10-25T07:28:28.220Z,20.10
2023-10-25T07:30:55.137Z,20.25
2023-10-25T07:33:25.995Z,20.36
2023-10-25T07:35:52.802Z,20.44
2023-10-25T07:38:19.601Z,20.47
2023-10-25T07:40:46.691Z,20.50
2023-10-25T07:43:13.515Z,20.67
2023-10-25T07:45:40.301Z,20.70
2023-10-25T07:48:07.225Z,20.83
2023-10-25T07:50:35.877Z,20.92
2023-10-25T07:53:02.788Z,20.81
2023-10-25T08:00:29.041Z,21.00
2023-10-25T08:02:56.001Z,21.19
2023-10-25T08:05:23.000Z,21.24
2023-10-25T08:07:49.922Z,21.34
2023-10-25T08:10:16.810Z,21.34
2023-10-25T08:12:43.696Z,21.48
2023-10-25T08:15:10.677Z,21.45
2023-10-25T08:17:37.613Z,21.65
2023-10-25T08:20:06.767Z,21.78
2023-10-25T08:22:35.140Z,21.88
2023-10-25T08:25:02.337Z,21.98
2023-10-25T08:27:29.238Z,21.90
2023-10-25T08:29:57.494Z,22.04
2023-10-25T08:32:24.729Z,22.01
2023-10-25T08:34:51.739Z,21.96
2023-10-25T08:37:19.444Z,22.01
2023-10-25T08:39:46.286Z,22.06
2023-10-25T08:42:13.421Z,22.19
2023-10-25T08:44:43.056Z,22.27
2023-10-25T08:47:11.668Z,22.36
2023-10-25T08:49:39.390Z,22.49
2023-10-25T08:52:07.699Z,22.59
2023-10-25T08:54:37.774Z,22.69
2023-10-25T08:57:06.168Z,22.58
2023-10-25T08:59:42.936Z,22.69
2023-10-25T09:02:12.902Z,22.76
2023-10-25T09:04:58.961Z,22.78
2023-10-25T09:07:30.541Z,22.85
2023-10-25T09:09:58.023Z,23.00
2023-10-25T09:12:25.825Z,23.11
2023-10-25T09:14:53.398Z,23.10
2023-10-25T09:17:20.467Z,23.13
2023-10-25T09:19:49.722Z,23.00
2023-10-25T09:22:27.068Z,23.08
2023-10-25T09:25:01.662Z,23.09
2023-10-25T09:27:29.586Z,23.09
2023-10-25T09:30:26.506Z,23.13
2023-10-25T09:32:54.557Z,23.20
2023-10-25T09:35:21.906Z,23.32
2023-10-25T09:37:48.925Z,23.21
2023-10-25T09:40:16.050Z,23.28
2023-10-25T09:42:53.377Z,23.38
2023-10-25T09:45:26.810Z,23.45
2023-10-25T09:47:58.769Z,23.55
2023-10-25T09:50:38.666Z,23.54
2023-10-25T09:53:15.133Z,23.60
2023-10-25T09:55:47.008Z,23.73
2023-10-25T09:58:15.989Z,23.77
2023-10-25T10:00:43.230Z,23.74
2023-10-25T10:03:33.542Z,23.69
2023-10-25T10:06:07.148Z,23.80
2023-10-25T10:09:14.179Z,23.74
2023-10-25T10:11:48.535Z,23.99
2023-10-25T10:14:38.046Z,24.06
2023-10-25T10:17:15.037Z,24.06
2023-10-25T10:19:44.516Z,24.12
2023-10-25T10:22:14.989Z,24.24
2023-10-25T10:24:43.134Z,24.36
2023-10-25T10:27:55.474Z,24.44
2023-10-25T10:30:31.472Z,24.42
2023-10-25T10:32:58.814Z,24.48
2023-10-25T10:35:26.603Z,24.55
2023-10-25T10:37:57.184Z,24.63
2023-10-25T10:40:24.427Z,24.67
2023-10-25T10:42:51.487Z,24.70
2023-10-25T10:45:20.844Z,24.84
2023-10-25T10:47:59.505Z,24.87
2023-10-25T10:50:27.115Z,24.90
2023-10-25T10:52:54.322Z,24.94
2023-10-25T10:55:23.611Z,25.03
2023-10-25T11:00:20.863Z,25.16
2023-10-25T11:02:49.389Z,25.16
2023-10-25T11:05:16.819Z,25.13
2023-10-25T11:07:43.787Z,25.12
2023-10-25T11:10:11.366Z,25.19
2023-10-25T11:12:38.564Z,25.15
2023-10-25T11:15:06.740Z,25.22
2023-10-25T11:17:34.893Z,24.98
2023-10-25T11:20:05.884Z,25.06
2023-10-25T11:22:33.736Z,24.96
2023-10-25T11:25:01.143Z,24.98
2023-10-25T11:27:32.131Z,25.03
2023-10-25T11:30:01.245Z,25.02
2023-10-25T11:32:31.407Z,25.04
2023-10-25T11:34:58.433Z,25.11
2023-10-25T11:37:26.711Z,25.16
2023-10-25T11:40:01.036Z,25.27
2023-10-25T11:42:30.946Z,25.22
2023-10-25T11:45:00.517Z,25.38
2023-10-25T11:47:28.996Z,25.47
2023-10-25T11:50:00.579Z,25.60
2023-10-25T11:52:28.934Z,25.61
2023-10-25T11:54:57.747Z,25.59
2023-10-25T11:57:33.164Z,25.63
2023-10-25T12:00:00.127Z,25.62
2023-10-25T12:02:28.374Z,25.57
2023-10-25T12:04:56.231Z,25.60
2023-10-25T12:07:24.775Z,25.51
2023-10-25T12:09:53.094Z,25.48
2023-10-25T12:12:21.026Z,25.40
2023-10-25T12:14:48.498Z,25.38
2023-10-25T12:17:15.915Z,25.39
2023-10-25T12:19:43.395Z,25.36
2023-10-25T12:22:13.750Z,25.38
2023-10-25T12:24:43.773Z,25.38
2023-10-25T12:27:12.708Z,25.39
2023-10-25T12:29:40.416Z,25.29
2023-10-25T12:32:07.906Z,25.37
2023-10-25T12:34:34.852Z,25.30
2023-10-25T12:37:01.944Z,25.39
2023-10-25T12:39:28.843Z,25.35
2023-10-25T12:41:55.819Z,25.41
2023-10-25T12:44:22.703Z,25.41
2023-10-25T12:46:49.600Z,25.40
2023-10-25T12:49:18.376Z,25.41
2023-10-25T12:51:46.218Z,25.37
2023-10-25T12:54:13.133Z,25.37
2023-10-25T12:56:40.000Z,25.36
2023-10-25T12:59:06.907Z,25.34
2023-10-25T13:01:33.931Z,25.40
2023-10-25T13:04:00.925Z,25.44
2023-10-25T13:06:28.287Z,25.44
2023-10-25T13:08:56.653Z,25.42
2023-10-25T13:11:23.643Z,25.43
2023-10-25T13:13:50.730Z,25.48
2023-10-25T13:16:17.757Z,25.53
2023-10-25T13:18:44.605Z,25.56
2023-10-25T13:21:11.452Z,25.58
2023-10-25T13:23:38.289Z,25.54
2023-10-25T13:26:05.179Z,25.53
2023-10-25T13:28:32.008Z,25.47
2023-10-25T13:30:58.908Z,25.41
2023-10-25T13:33:27.561Z,25.33
2023-10-25T13:35:54.727Z,25.38
2023-10-25T13:38:21.704Z,25.37
2023-10-25T13:40:49.668Z,25.35
2023-10-25T13:43:17.396Z,25.28
2023-10-25T13:45:46.235Z,25.16
2023-10-25T13:48:13.805Z,25.09
2023-10-25T13:50:41.136Z,25.08
2023-10-25T13:53:08.294Z,25.05
2023-10-25T13:55:39.305Z,24.88
2023-10-25T13:58:12.857Z,24.86
2023-10-25T14:00:42.602Z,24.79
2023-10-25T14:03:09.770Z,24.77
2023-10-25T14:05:44.066Z,24.80
2023-10-25T14:08:11.247Z,24.79
2023-10-25T14:10:48.759Z,24.80
2023-10-25T14:13:37.733Z,24.58
2023-10-25T14:16:11.682Z,24.46
2023-10-25T14:18:39.048Z,24.51
2023-10-25T14:21:12.201Z,24.44
2023-10-25T14:23:41.387Z,24.42
2023-10-25T14:26:08.545Z,24.35
2023-10-25T14:28:35.975Z,24.34
2023-10-25T14:31:03.143Z,24.34
2023-10-25T14:33:30.450Z,24.36
2023-10-25T14:35:58.085Z,24.30
2023-10-25T14:38:25.029Z,24.22
2023-10-25T14:40:51.924Z,24.10
2023-10-25T14:43:18.814Z,24.06
2023-10-25T14:45:47.129Z,24.04
2023-10-25T14:48:14.688Z,23.98
2023-10-25T14:50:41.801Z,23.97
2023-10-25T14:53:08.823Z,23.94
2023-10-25T14:55:37.349Z,23.91
2023-10-25T14:58:05.726Z,23.89
2023-10-25T15:00:33.195Z,23.91
2023-10-25T15:03:00.360Z,24.00
2023-10-25T15:05:27.408Z,24.01
2023-10-25T15:07:56.495Z,24.07
2023-10-25T15:10:23.556Z,24.08
2023-10-25T15:12:50.469Z,24.09
2023-10-25T15:15:17.519Z,24.11
2023-10-25T15:17:47.201Z,24.13
2023-10-25T15:20:15.543Z,24.11
2023-10-25T15:22:42.756Z,24.09
2023-10-25T15:25:11.206Z,24.06
2023-10-25T15:27:39.218Z,24.08
2023-10-25T15:30:06.804Z,24.04
2023-10-25T15:32:34.006Z,24.09
2023-10-25T15:35:00.937Z,24.06
2023-10-25T15:37:29.354Z,24.12
2023-10-25T15:40:09.462Z,24.09
2023-10-25T15:42:42.638Z,24.09
2023-10-25T15:45:14.107Z,24.08
2023-10-25T15:47:41.450Z,24.12
2023-10-25T15:50:09.276Z,24.03
2023-10-25T15:52:37.369Z,24.12
2023-10-25T15:55:05.768Z,24.13
2023-10-25T15:57:33.085Z,24.09
2023-10-25T16:00:00.026Z,24.13
2023-10-25T16:02:26.908Z,24.11
2023-10-25T16:04:53.970Z,24.07
2023-10-25T16:07:20.977Z,23.96
2023-10-25T16:09:48.539Z,24.00
2023-10-25T16:12:15.331Z,23.98
2023-10-25T16:14:42.445Z,23.91
2023-10-25T16:17:09.802Z,23.83
2023-10-25T16:19:37.476Z,23.79
2023-10-25T16:22:05.597Z,23.76
2023-10-25T16:24:32.564Z,23.70
2023-10-25T16:27:00.168Z,23.72
2023-10-25T16:29:30.482Z,23.67
2023-10-25T16:31:57.323Z,23.62
2023-10-25T16:34:24.178Z,23.61
2023-10-25T16:37:03.384Z,23.53
2023-10-25T16:39:32.448Z,23.56
2023-10-25T16:42:02.613Z,23.52
2023-10-25T16:44:29.986Z,23.46
2023-10-25T16:46:57.077Z,23.46
2023-10-25T16:49:24.038Z,23.44
2023-10-25T16:51:50.869Z,23.38
2023-10-25T16:54:17.979Z,23.37
2023-10-25T16:56:45.543Z,23.32
2023-10-25T16:59:14.650Z,23.29
2023-10-25T17:01:41.617Z,23.23
2023-10-25T17:04:08.714Z,23.20
2023-10-25T17:06:35.914Z,23.10
2023-10-25T17:09:04.410Z,23.10
2023-10-25T17:11:31.363Z,23.10
2023-10-25T17:13:58.325Z,23.06
2023-10-25T17:16:25.302Z,23.06
2023-10-25T17:18:53.280Z,23.02
2023-10-25T17:21:20.281Z,23.06
2023-10-25T17:23:47.513Z,23.02
2023-10-25T17:26:14.367Z,23.00
2023-10-25T17:28:41.292Z,22.96
2023-10-25T17:31:08.230Z,22.96
2023-10-25T17:33:35.323Z,22.92
2023-10-25T17:36:02.570Z,22.94
2023-10-25T17:38:31.931Z,22.92
2023-10-25T17:41:00.429Z,22.89
2023-10-25T17:43:27.515Z,22.84
2023-10-25T17:48:29.041Z,22.86
2023-10-25T17:50:56.382Z,22.77
2023-10-25T17:53:24.109Z,22.76
2023-10-25T17:55:51.214Z,22.74
2023-10-25T17:58:18.238Z,22.78
2023-10-25T18:00:48.415Z,22.76
2023-10-25T18:03:15.555Z,22.73
2023-10-25T18:05:43.374Z,22.74
2023-10-25T18:08:12.688Z,22.73
2023-10-25T18:10:43.801Z,22.67
2023-10-25T18:13:11.374Z,22.68
2023-10-25T18:15:38.981Z,22.67
2023-10-25T18:18:13.066Z,22.67
2023-10-25T18:20:40.350Z,22.68
2023-10-25T18:23:07.427Z,22.68
2023-10-25T18:25:34.273Z,22.62
2023-10-25T18:28:01.895Z,22.65
2023-10-25T18:32:02.397Z,22.68
2023-10-25T18:33:20.423Z,22.63
2023-10-25T18:35:49.322Z,22.66
2023-10-25T18:38:16.605Z,22.67
2023-10-25T18:40:55.386Z,22.71
2023-10-25T18:43:22.674Z,22.66
2023-10-25T18:46:02.470Z,22.70
2023-10-25T18:48:29.776Z,22.70
2023-10-25T18:51:00.541Z,22.65
2023-10-25T18:53:30.214Z,22.63
2023-10-25T18:56:01.269Z,22.59
2023-10-25T18:58:29.555Z,22.58
2023-10-25T19:00:57.529Z,22.59
2023-10-25T19:03:28.390Z,22.60
2023-10-25T19:06:23.149Z,22.63
2023-10-25T19:08:43.625Z,22.61
2023-10-25T19:11:11.034Z,22.57
2023-10-25T19:13:39.884Z,22.57
2023-10-25T19:16:12.774Z,22.56
2023-10-25T19:18:39.677Z,22.56
2023-10-25T19:21:07.346Z,22.58
2023-10-25T19:23:34.292Z,22.55
2023-10-25T19:26:06.220Z,22.55
2023-10-25T19:28:35.716Z,22.50
2023-10-25T19:31:02.646Z,22.51
2023-10-25T19:33:29.663Z,22.48
2023-10-25T19:35:56.846Z,22.44
2023-10-25T19:38:23.946Z,22.40
2023-10-25T19:40:50.792Z,22.43
2023-10-25T19:43:21.375Z,22.41
2023-10-25T19:45:48.273Z,22.42
2023-10-25T19:48:15.124Z,22.39
2023-10-25T19:50:42.056Z,22.36
2023-10-25T19:53:10.221Z,22.35
2023-10-25T19:55:38.031Z,22.33
2023-10-25T19:58:04.885Z,22.34
2023-10-25T20:00:31.780Z,22.33
2023-10-25T20:02:58.743Z,22.33
2023-10-25T20:05:25.754Z,22.38
2023-10-25T20:07:52.529Z,22.30
2023-10-25T20:10:19.413Z,22.33
2023-10-25T20:12:48.360Z,22.32
2023-10-25T20:15:15.298Z,22.31
2023-10-25T20:17:43.477Z,22.34
2023-10-25T20:20:10.841Z,22.36
2023-10-25T20:22:38.161Z,22.37
2023-10-25T20:25:05.761Z,22.36
2023-10-25T20:27:34.679Z,22.33
2023-10-25T20:30:01.676Z,22.27
2023-10-25T20:32:32.276Z,22.29
2023-10-25T20:35:00.050Z,22.26
2023-10-25T20:37:26.982Z,22.23
2023-10-25T20:39:53.883Z,22.25
2023-10-25T20:42:20.806Z,22.24
2023-10-25T20:44:48.190Z,22.24
2023-10-25T20:47:15.175Z,22.20
2023-10-25T20:49:42.100Z,22.17
2023-10-25T20:52:08.922Z,22.16
2023-10-25T20:54:35.765Z,22.14
2023-10-25T20:57:02.722Z,22.06
2023-10-25T20:59:29.544Z,22.03
2023-10-25T21:01:56.392Z,22.00
2023-10-25T21:04:26.189Z,22.00
2023-10-25T21:06:53.334Z,21.92
2023-10-25T21:09:20.430Z,21.91
2023-10-25T21:11:47.365Z,21.97
2023-10-25T21:14:14.300Z,21.91
2023-10-25T21:16:41.109Z,21.92
2023-10-25T21:19:08.048Z,21.85
2023-10-25T21:21:34.961Z,21.84
2023-10-25T21:24:01.896Z,21.84
2023-10-25T21:26:29.536Z,21.84
2023-10-25T21:28:58.051Z,21.84
2023-10-25T21:31:28.259Z,21.85
2023-10-25T21:33:55.321Z,21.84
2023-10-25T21:36:24.188Z,21.85
2023-10-25T21:38:51.282Z,21.82
2023-10-25T21:41:18.325Z,21.75
2023-10-25T21:43:45.148Z,21.74
2023-10-25T21:46:12.516Z,21.77
2023-10-25T21:48:39.566Z,21.77
2023-10-25T21:51:07.421Z,21.72
2023-10-25T21:53:35.037Z,21.72
2023-10-25T21:56:23.505Z,21.75
2023-10-25T21:59:48.131Z,21.80
2023-10-25T22:01:36.877Z,21.73
2023-10-25T22:04:04.287Z,21.75
2023-10-25T22:06:32.142Z,21.76
2023-10-25T22:08:59.177Z,21.71
2023-10-25T22:11:26.176Z,21.77
2023-10-25T22:13:52.973Z,21.73
2023-10-25T22:16:19.902Z,21.73
2023-10-25T22:18:46.774Z,21.72
2023-10-25T22:21:13.765Z,21.70
2023-10-25T22:23:40.695Z,21.71
2023-10-25T22:26:07.536Z,21.73
2023-10-25T22:28:34.282Z,21.67
2023-10-25T22:31:05.566Z,21.65
2023-10-25T22:33:32.877Z,21.66
2023-10-25T22:36:02.591Z,21.63
2023-10-25T22:38:30.896Z,21.65
2023-10-25T22:40:59.049Z,21.65
2023-10-25T22:43:28.087Z,21.66
2023-10-25T22:45:54.962Z,21.69
2023-10-25T22:48:22.797Z,21.66
2023-10-25T22:50:56.433Z,21.64
2023-10-25T22:53:23.608Z,21.68
2023-10-25T22:55:50.417Z,21.58
2023-10-25T22:58:17.495Z,21.56
2023-10-25T23:00:45.694Z,21.59
2023-10-25T23:03:12.830Z,21.60
2023-10-25T23:05:48.219Z,21.62
2023-10-25T23:08:14.970Z,21.60
2023-10-25T23:10:42.305Z,21.60
2023-10-25T23:13:09.247Z,21.58
2023-10-25T23:15:37.070Z,21.52
2023-10-25T23:18:04.775Z,21.48
2023-10-25T23:20:32.019Z,21.48
2023-10-25T23:22:58.820Z,21.41
2023-10-25T23:25:25.699Z,21.42
2023-10-25T23:27:52.514Z,21.44
2023-10-25T23:30:19.268Z,21.36
2023-10-25T23:32:46.198Z,21.39
2023-10-25T23:35:14.549Z,21.40
2023-10-25T23:37:41.448Z,21.39
2023-10-25T23:40:08.709Z,21.33
2023-10-25T23:42:35.757Z,21.31
2023-10-25T23:45:02.724Z,21.32
2023-10-25T23:47:29.602Z,21.30
2023-10-25T23:49:56.464Z,21.29
2023-10-25T23:52:23.270Z,21.17
2023-10-25T23:54:54.678Z,21.17
2023-10-25T23:57:22.803Z,21.15
2023-10-25T23:59:49.917Z,21.18
